createdAt,value
2019-02-10T00:01:55.993Z,2.27
2019-02-10T00:04:28.910Z,3.20
2019-02-10T00:07:01.323Z,2.58
2019-02-10T00:09:33.391Z,2.33
2019-02-10T00:12:06.236Z,3.27
2019-02-10T00:14:38.619Z,2.17
2019-02-10T00:17:10.831Z,2.13
2019-02-10T00:19:43.187Z,2.08
2019-02-10T00:22:16.686Z,2.17
2019-02-10T00:24:49.500Z,2.12
2019-02-10T00:27:21.657Z,1.90
2019-02-10T00:29:54.172Z,2.23
2019-02-10T00:32:26.888Z,2.60
2019-02-10T00:34:59.238Z,2.42
2019-02-10T00:37:31.322Z,2.23
2019-02-10T00:40:03.790Z,2.40
2019-02-10T00:42:36.153Z,1.40
2019-02-10T00:45:08.583Z,2.10
2019-02-10T00:47:40.882Z,2.65
2019-02-10T00:50:12.954Z,2.07
2019-02-10T00:52:45.056Z,2.13
2019-02-10T00:55:17.169Z,2.50
2019-02-10T00:57:49.392Z,2.20
2019-02-10T01:00:21.846Z,1.32
2019-02-10T01:02:54.189Z,2.00
2019-02-10T01:05:26.298Z,1.90
2019-02-10T01:07:58.579Z,2.67
2019-02-10T01:10:30.928Z,1.90
2019-02-10T01:13:03.258Z,1.97
2019-02-10T01:15:35.601Z,2.75
2019-02-10T01:18:07.785Z,2.80
2019-02-10T01:20:39.877Z,2.10
2019-02-10T01:23:12.664Z,1.90
2019-02-10T01:25:45.415Z,2.22
2019-02-10T01:28:18.090Z,2.25
2019-02-10T01:30:50.715Z,2.05
2019-02-10T01:33:23.048Z,2.15
2019-02-10T01:35:55.112Z,1.87
2019-02-10T01:38:28.138Z,2.05
2019-02-10T01:41:01.215Z,3.05
2019-02-10T01:43:34.049Z,2.10
2019-02-10T01:46:07.102Z,1.75
2019-02-10T01:48:39.458Z,1.72
2019-02-10T01:51:11.830Z,1.97
2019-02-10T01:53:44.576Z,2.12
2019-02-10T01:56:16.925Z,2.22
2019-02-10T01:58:49.150Z,1.60
2019-02-10T02:01:21.814Z,1.98
2019-02-10T02:03:54.270Z,2.40
2019-02-10T02:06:26.618Z,2.08
2019-02-10T02:08:59.165Z,2.00
2019-02-10T02:11:32.074Z,2.10
2019-02-10T02:14:04.467Z,2.08
2019-02-10T02:16:36.499Z,1.40
2019-02-10T02:19:08.656Z,1.67
2019-02-10T02:21:41.453Z,1.97
2019-02-10T02:24:13.826Z,1.52
2019-02-10T02:26:46.306Z,1.83
2019-02-10T02:29:18.715Z,1.70
2019-02-10T02:31:51.669Z,2.12
2019-02-10T02:34:24.844Z,2.17
2019-02-10T02:36:56.982Z,1.82
2019-02-10T02:39:29.061Z,2.03
2019-02-10T02:42:01.164Z,1.80
2019-02-10T02:44:33.620Z,1.60
2019-02-10T02:47:06.246Z,2.37
2019-02-10T02:49:38.607Z,1.95
2019-02-10T02:52:10.779Z,2.17
2019-02-10T02:54:42.927Z,1.80
2019-02-10T02:57:15.184Z,1.70
2019-02-10T02:59:47.546Z,2.10
2019-02-10T03:02:19.939Z,1.77
2019-02-10T03:04:52.276Z,2.00
2019-02-10T03:07:24.436Z,1.90
2019-02-10T03:09:56.700Z,1.80
2019-02-10T03:12:29.424Z,1.65
2019-02-10T03:15:01.943Z,1.50
2019-02-10T03:17:34.534Z,2.22
2019-02-10T03:20:07.566Z,1.87
2019-02-10T03:22:39.959Z,1.35
2019-02-10T03:25:12.319Z,1.60
2019-02-10T03:27:44.422Z,1.93
2019-02-10T03:30:16.490Z,1.60
2019-02-10T03:32:48.539Z,1.97
2019-02-10T03:35:21.164Z,1.67
2019-02-10T03:37:53.500Z,1.73
2019-02-10T03:40:25.869Z,2.00
2019-02-10T03:42:57.921Z,1.50
2019-02-10T03:45:30.013Z,1.43
2019-02-10T03:48:02.180Z,2.30
2019-02-10T03:50:34.265Z,1.93
2019-02-10T03:53:06.359Z,1.90
2019-02-10T03:55:38.476Z,1.80
2019-02-10T03:58:10.611Z,1.90
2019-02-10T04:00:43.186Z,1.57
2019-02-10T04:03:15.585Z,1.85
2019-02-10T04:05:48.408Z,1.67
2019-02-10T04:08:20.777Z,2.25
2019-02-10T04:10:53.287Z,1.70
2019-02-10T04:13:26.107Z,1.40
2019-02-10T04:15:58.488Z,1.60
2019-02-10T04:18:30.546Z,1.97
2019-02-10T04:21:02.788Z,1.83
2019-02-10T04:23:35.130Z,1.82
2019-02-10T04:26:07.616Z,1.40
2019-02-10T04:28:39.959Z,1.75
2019-02-10T04:31:12.047Z,1.60
2019-02-10T04:33:44.113Z,1.77
2019-02-10T04:36:16.753Z,1.80
2019-02-10T04:38:48.910Z,1.90
2019-02-10T04:41:20.991Z,1.53
2019-02-10T04:43:53.053Z,2.30
2019-02-10T04:46:25.225Z,2.03
2019-02-10T04:48:57.552Z,1.80
2019-02-10T04:51:29.715Z,2.20
2019-02-10T04:54:02.301Z,2.00
2019-02-10T04:56:34.622Z,1.77
2019-02-10T04:59:06.830Z,1.53
2019-02-10T05:01:38.974Z,1.63
2019-02-10T05:04:11.416Z,1.53
2019-02-10T05:06:43.785Z,1.62
2019-02-10T05:09:16.180Z,1.83
2019-02-10T05:11:48.549Z,2.22
2019-02-10T05:14:21.486Z,1.80
2019-02-10T05:16:53.531Z,1.40
2019-02-10T05:19:26.240Z,1.77
2019-02-10T05:21:58.339Z,2.03
2019-02-10T05:24:30.872Z,1.60
2019-02-10T05:27:03.237Z,1.60
2019-02-10T05:29:35.363Z,1.53
2019-02-10T05:32:07.497Z,1.53
2019-02-10T05:34:39.624Z,1.40
2019-02-10T05:37:11.671Z,2.07
2019-02-10T05:39:44.728Z,1.87
2019-02-10T05:42:17.072Z,1.80
2019-02-10T05:44:49.188Z,1.53
2019-02-10T05:47:21.414Z,2.20
2019-02-10T05:49:53.896Z,2.55
2019-02-10T05:52:26.715Z,1.87
2019-02-10T05:54:59.065Z,2.75
2019-02-10T05:57:31.211Z,1.60
2019-02-10T06:00:03.608Z,1.60
2019-02-10T06:02:36.157Z,1.70
2019-02-10T06:05:19.236Z,1.25
2019-02-10T06:07:51.555Z,1.37
2019-02-10T06:10:23.661Z,1.50
2019-02-10T06:12:55.719Z,1.93
2019-02-10T06:15:28.702Z,1.30
2019-02-10T06:18:01.168Z,2.17
2019-02-10T06:20:33.609Z,1.55
2019-02-10T06:23:06.117Z,1.75
2019-02-10T06:25:38.622Z,1.45
2019-02-10T06:28:11.058Z,2.05
2019-02-10T06:30:43.585Z,1.80
2019-02-10T06:33:16.146Z,1.05
2019-02-10T06:35:48.527Z,1.62
2019-02-10T06:38:22.792Z,1.80
2019-02-10T06:40:55.411Z,1.60
2019-02-10T06:43:27.762Z,1.40
2019-02-10T06:45:59.865Z,1.70
2019-02-10T06:48:32.437Z,1.40
2019-02-10T06:51:05.022Z,1.62
2019-02-10T06:53:37.393Z,1.52
2019-02-10T06:56:09.806Z,1.70
2019-02-10T06:58:42.196Z,2.40
2019-02-10T07:01:28.064Z,1.30
2019-02-10T07:04:26.986Z,1.95
2019-02-10T07:06:59.640Z,1.62
2019-02-10T07:09:32.195Z,1.63
2019-02-10T07:12:49.403Z,1.57
2019-02-10T07:16:15.955Z,1.42
2019-02-10T07:19:42.615Z,1.82
2019-02-10T07:22:56.205Z,1.80
2019-02-10T07:26:02.323Z,1.80
2019-02-10T07:29:03.494Z,1.50
2019-02-10T07:31:55.139Z,1.80
2019-02-10T07:35:27.416Z,1.75
2019-02-10T07:38:41.153Z,2.10
2019-02-10T07:41:53.172Z,2.10
2019-02-10T07:45:17.117Z,1.80
2019-02-10T07:48:35.988Z,1.87
2019-02-10T07:52:08.789Z,1.92
2019-02-10T07:55:52.361Z,1.80
2019-02-10T07:59:25.454Z,1.82
2019-02-10T08:03:13.360Z,1.82
2019-02-10T08:06:22.565Z,1.80
2019-02-10T08:09:59.639Z,1.90
2019-02-10T08:13:33.079Z,1.50
2019-02-10T08:17:18.998Z,1.95
2019-02-10T08:20:50.074Z,1.42
2019-02-10T08:24:22.082Z,1.47
2019-02-10T08:27:49.017Z,2.17
2019-02-10T08:31:19.365Z,1.42
2019-02-10T08:34:48.206Z,1.70
2019-02-10T08:38:28.399Z,1.70
2019-02-10T08:42:04.387Z,1.57
2019-02-10T08:45:18.154Z,1.75
2019-02-10T08:48:50.559Z,1.60
2019-02-10T08:51:54.314Z,1.45
2019-02-10T08:54:29.215Z,1.27
2019-02-10T08:57:01.865Z,1.80
2019-02-10T08:59:33.940Z,1.50
2019-02-10T09:02:06.581Z,1.85
2019-02-10T09:04:38.651Z,1.60
2019-02-10T09:07:11.280Z,1.40
2019-02-10T09:09:43.719Z,1.73
2019-02-10T09:12:16.046Z,1.60
2019-02-10T09:14:48.106Z,1.67
2019-02-10T09:17:20.173Z,1.33
2019-02-10T09:19:52.863Z,1.80
2019-02-10T09:22:25.308Z,1.30
2019-02-10T09:24:57.868Z,1.35
2019-02-10T09:27:30.197Z,1.17
2019-02-10T09:30:02.346Z,1.70
2019-02-10T09:32:34.877Z,1.55
2019-02-10T09:35:08.131Z,1.30
2019-02-10T09:37:40.247Z,1.37
2019-02-10T09:40:12.804Z,1.17
2019-02-10T09:42:45.399Z,1.30
2019-02-10T09:45:17.834Z,1.25
2019-02-10T09:47:50.235Z,1.40
2019-02-10T09:50:23.262Z,1.70
2019-02-10T09:52:55.652Z,1.72
2019-02-10T09:55:27.731Z,1.30
2019-02-10T09:57:59.867Z,1.27
2019-02-10T10:00:32.578Z,1.47
2019-02-10T10:03:05.177Z,1.42
2019-02-10T10:05:37.591Z,1.82
2019-02-10T10:08:10.035Z,1.45
2019-02-10T10:10:42.363Z,1.32
2019-02-10T10:13:14.884Z,1.30
2019-02-10T10:15:50.467Z,1.60
2019-02-10T10:18:23.180Z,1.57
2019-02-10T10:20:55.626Z,1.30
2019-02-10T10:23:27.958Z,1.37
2019-02-10T10:26:00.016Z,1.07
2019-02-10T10:28:34.270Z,1.30
2019-02-10T10:31:12.760Z,1.30
2019-02-10T10:33:45.387Z,1.37
2019-02-10T10:36:17.928Z,1.47
2019-02-10T10:38:50.278Z,1.40
2019-02-10T10:41:22.805Z,1.30
2019-02-10T10:43:55.144Z,1.40
2019-02-10T10:46:27.224Z,1.50
2019-02-10T10:48:59.392Z,1.40
2019-02-10T10:51:31.798Z,1.55
2019-02-10T10:54:04.584Z,1.30
2019-02-10T10:56:36.959Z,1.70
2019-02-10T10:59:09.736Z,1.87
2019-02-10T11:01:42.103Z,1.92
2019-02-10T11:04:14.719Z,1.40
2019-02-10T11:06:47.064Z,1.70
2019-02-10T11:09:19.152Z,1.43
2019-02-10T11:11:52.030Z,1.50
2019-02-10T11:14:24.250Z,1.50
2019-02-10T11:16:56.401Z,1.53
2019-02-10T11:19:28.531Z,1.53
2019-02-10T11:22:00.607Z,0.90
2019-02-10T11:24:32.680Z,1.77
2019-02-10T11:27:04.898Z,1.60
2019-02-10T11:29:37.157Z,1.30
2019-02-10T11:32:09.514Z,1.50
2019-02-10T11:34:46.218Z,1.50
2019-02-10T11:37:16.210Z,1.27
2019-02-10T11:39:48.569Z,1.00
2019-02-10T11:42:20.897Z,1.30
2019-02-10T11:44:52.950Z,1.10
2019-02-10T11:47:25.723Z,1.60
2019-02-10T11:49:58.131Z,1.27
2019-02-10T11:52:30.282Z,1.30
2019-02-10T11:55:02.656Z,1.20
2019-02-10T11:57:35.350Z,1.02
2019-02-10T12:00:09.538Z,1.30
2019-02-10T12:02:42.529Z,1.30
2019-02-10T12:05:15.321Z,0.93
2019-02-10T12:07:48.056Z,0.90
2019-02-10T12:10:20.378Z,1.10
2019-02-10T12:12:53.372Z,1.20
2019-02-10T12:17:56.462Z,1.17
2019-02-10T12:20:28.823Z,1.00
2019-02-10T12:23:01.171Z,1.50
2019-02-10T12:25:33.229Z,1.17
2019-02-10T12:28:05.308Z,1.23
2019-02-10T12:30:37.368Z,1.23
2019-02-10T12:33:09.442Z,1.13
2019-02-10T12:35:41.558Z,1.17
2019-02-10T12:38:13.712Z,1.87
2019-02-10T12:40:45.764Z,1.10
2019-02-10T12:43:18.121Z,1.43
2019-02-10T12:45:50.447Z,1.65
2019-02-10T12:48:23.126Z,1.33
2019-02-10T12:50:55.456Z,1.77
2019-02-10T12:53:27.523Z,1.30
2019-02-10T12:55:59.618Z,1.87
2019-02-10T12:58:32.356Z,1.30
2019-02-10T13:01:04.778Z,1.47
2019-02-10T13:03:37.222Z,1.62
2019-02-10T13:06:09.636Z,1.50
2019-02-10T13:08:41.987Z,2.00
2019-02-10T13:11:14.049Z,1.80
2019-02-10T13:13:46.190Z,1.00
2019-02-10T13:16:18.575Z,1.60
2019-02-10T13:18:51.157Z,1.40
2019-02-10T13:21:23.648Z,1.77
2019-02-10T13:23:56.150Z,2.25
2019-02-10T13:26:28.849Z,1.90
2019-02-10T13:29:01.202Z,1.72
2019-02-10T13:31:33.593Z,1.80
2019-02-10T13:34:06.228Z,1.80
2019-02-10T13:36:38.657Z,2.17
2019-02-10T13:39:11.930Z,2.00
2019-02-10T13:41:42.001Z,1.62
2019-02-10T13:44:14.650Z,1.92
2019-02-10T13:46:47.077Z,2.12
2019-02-10T13:49:19.474Z,1.98
2019-02-10T13:51:51.831Z,2.33
2019-02-10T13:54:24.179Z,1.72
2019-02-10T13:56:56.522Z,2.08
2019-02-10T13:59:28.609Z,2.20
2019-02-10T14:02:01.034Z,2.03
2019-02-10T14:04:33.703Z,2.12
2019-02-10T14:07:06.035Z,1.92
2019-02-10T14:09:38.103Z,1.77
2019-02-10T14:12:10.213Z,2.40
2019-02-10T14:14:42.289Z,1.83
2019-02-10T14:17:14.364Z,1.50
2019-02-10T14:19:46.910Z,1.43
2019-02-10T14:22:19.591Z,1.45
2019-02-10T14:24:51.981Z,1.50
2019-02-10T14:27:25.220Z,1.55
2019-02-10T14:32:28.465Z,1.15
2019-02-10T14:35:00.813Z,1.20
2019-02-10T14:37:33.224Z,1.50
2019-02-10T14:40:08.078Z,1.02
2019-02-10T14:42:40.729Z,1.35
2019-02-10T14:45:13.263Z,1.10
2019-02-10T14:47:46.068Z,1.15
2019-02-10T14:50:18.858Z,1.10
2019-02-10T14:52:51.174Z,1.20
2019-02-10T14:55:23.215Z,0.93
2019-02-10T14:57:55.369Z,1.00
2019-02-10T15:00:27.712Z,1.10
2019-02-10T15:02:59.887Z,1.20
2019-02-10T15:05:32.226Z,0.98
2019-02-10T15:08:04.287Z,1.60
2019-02-10T15:10:41.761Z,1.30
2019-02-10T15:13:11.537Z,1.30
2019-02-10T15:18:15.044Z,1.00
2019-02-10T15:20:47.368Z,1.27
2019-02-10T15:23:19.481Z,0.97
2019-02-10T15:25:53.926Z,1.17
2019-02-10T15:28:26.161Z,1.37
2019-02-10T15:30:58.964Z,1.45
2019-02-10T15:33:31.363Z,1.30
2019-02-10T15:36:03.680Z,1.20
2019-02-10T15:38:35.753Z,1.30
2019-02-10T15:41:08.535Z,1.20
2019-02-10T15:43:41.178Z,1.30
2019-02-10T15:46:13.792Z,1.27
2019-02-10T15:48:46.446Z,0.90
2019-02-10T15:51:19.166Z,0.80
2019-02-10T15:53:51.763Z,1.37
2019-02-10T15:56:24.120Z,1.30
2019-02-10T15:58:56.799Z,1.55
2019-02-10T16:01:29.110Z,1.50
2019-02-10T16:04:01.172Z,1.30
2019-02-10T16:06:33.481Z,1.70
2019-02-10T16:09:06.512Z,1.40
2019-02-10T16:11:38.882Z,1.60
2019-02-10T16:14:11.235Z,1.30
2019-02-10T16:16:43.841Z,1.20
2019-02-10T16:19:16.594Z,1.52
2019-02-10T16:21:48.916Z,1.20
2019-02-10T16:24:21.336Z,1.20
2019-02-10T16:26:54.040Z,0.98
2019-02-10T16:29:26.782Z,1.47
2019-02-10T16:31:59.511Z,1.25
2019-02-10T16:34:31.958Z,1.60
2019-02-10T16:37:05.054Z,1.50
2019-02-10T16:42:08.080Z,1.35
2019-02-10T16:44:40.442Z,1.73
2019-02-10T16:47:12.858Z,1.80
2019-02-10T16:49:45.191Z,0.82
2019-02-10T16:52:17.386Z,1.50
2019-02-10T16:54:49.810Z,1.92
2019-02-10T16:57:22.618Z,1.52
2019-02-10T16:59:55.234Z,1.40
2019-02-10T17:02:27.569Z,1.50
2019-02-10T17:05:00.335Z,1.63
2019-02-10T17:07:32.640Z,1.47
2019-02-10T17:10:04.742Z,1.60
2019-02-10T17:12:36.886Z,1.40
2019-02-10T17:15:10.908Z,1.77
2019-02-10T17:17:44.329Z,1.70
2019-02-10T17:20:17.202Z,2.22
2019-02-10T17:22:49.374Z,1.95
2019-02-10T17:25:22.024Z,1.80
2019-02-10T17:27:54.698Z,2.12
2019-02-10T17:30:27.055Z,2.00
2019-02-10T17:32:59.137Z,1.13
2019-02-10T17:35:31.384Z,1.33
2019-02-10T17:38:03.998Z,1.17
2019-02-10T17:40:41.412Z,1.30
2019-02-10T17:43:14.039Z,1.52
2019-02-10T17:45:46.524Z,1.30
2019-02-10T17:48:18.912Z,1.25
2019-02-10T17:50:50.994Z,1.60
2019-02-10T17:53:23.354Z,1.50
2019-02-10T17:55:55.688Z,1.30
2019-02-10T17:58:27.767Z,1.50
2019-02-10T18:00:59.842Z,1.40
2019-02-10T18:03:32.809Z,1.60
2019-02-10T18:06:05.588Z,1.40
2019-02-10T18:08:37.819Z,1.53
2019-02-10T18:11:10.141Z,1.50
2019-02-10T18:13:42.714Z,1.73
2019-02-10T18:16:33.106Z,1.50
2019-02-10T18:19:11.622Z,1.40
2019-02-10T18:22:03.113Z,1.20
2019-02-10T18:25:07.383Z,1.35
2019-02-10T18:30:38.145Z,1.00
2019-02-10T18:33:35.868Z,1.27
2019-02-10T18:36:26.399Z,1.52
2019-02-10T18:39:33.483Z,1.62
2019-02-10T18:42:28.715Z,1.70
2019-02-10T18:45:29.351Z,1.00
2019-02-10T18:48:09.003Z,1.50
2019-02-10T18:51:01.801Z,1.25
2019-02-10T18:53:53.305Z,1.45
2019-02-10T18:56:39.199Z,1.30
2019-02-10T18:59:28.391Z,1.40
2019-02-10T19:02:20.217Z,1.15
2019-02-10T19:05:21.327Z,1.17
2019-02-10T19:08:18.584Z,0.98
2019-02-10T19:10:57.439Z,0.90
2019-02-10T19:13:43.106Z,0.90
2019-02-10T19:16:50.325Z,0.88
2019-02-10T19:19:42.959Z,0.98
2019-02-10T19:22:50.256Z,0.80
2019-02-10T19:25:40.181Z,0.80
2019-02-10T19:28:31.845Z,0.90
2019-02-10T19:31:26.360Z,0.62
2019-02-10T19:34:28.639Z,0.82
2019-02-10T19:37:20.475Z,0.60
2019-02-10T19:40:17.899Z,0.70
2019-02-10T19:43:16.799Z,0.72
2019-02-10T19:46:08.418Z,0.90
2019-02-10T19:48:59.643Z,0.68
2019-02-10T19:51:52.533Z,0.95
2019-02-10T19:54:33.509Z,1.10
2019-02-10T19:57:28.250Z,1.00
2019-02-10T20:00:19.710Z,0.70
2019-02-10T20:03:11.024Z,0.90
2019-02-10T20:06:08.739Z,0.98
2019-02-10T20:09:00.297Z,0.75
2019-02-10T20:11:52.302Z,0.50
2019-02-10T20:14:49.860Z,0.70
2019-02-10T20:17:39.268Z,0.42
2019-02-10T20:20:39.978Z,0.62
2019-02-10T20:23:32.122Z,0.50
2019-02-10T20:26:23.306Z,0.57
2019-02-10T20:29:15.142Z,0.50
2019-02-10T20:32:06.014Z,0.70
2019-02-10T20:34:52.446Z,0.60
2019-02-10T20:37:42.451Z,0.60
2019-02-10T20:40:27.467Z,0.80
2019-02-10T20:43:08.983Z,0.55
2019-02-10T20:46:12.889Z,0.60
2019-02-10T20:49:05.074Z,0.68
2019-02-10T20:51:46.794Z,0.68
2019-02-10T20:54:38.691Z,0.60
2019-02-10T20:57:20.633Z,0.50
2019-02-10T21:00:21.216Z,0.80
2019-02-10T21:03:05.640Z,0.60
2019-02-10T21:06:00.618Z,0.78
2019-02-10T21:09:07.740Z,0.60
2019-02-10T21:11:57.777Z,0.50
2019-02-10T21:14:46.415Z,0.60
2019-02-10T21:17:27.874Z,0.70
2019-02-10T21:20:31.595Z,0.53
2019-02-10T21:23:28.396Z,0.60
2019-02-10T21:26:20.019Z,0.60
2019-02-10T21:29:02.853Z,0.50
2019-02-10T21:31:52.570Z,0.70
2019-02-10T21:34:40.206Z,0.65
2019-02-10T21:37:37.803Z,0.80
2019-02-10T21:40:21.791Z,0.60
2019-02-10T21:43:13.580Z,0.60
2019-02-10T21:46:05.268Z,0.80
2019-02-10T21:48:50.940Z,0.70
2019-02-10T21:51:23.654Z,0.62
2019-02-10T21:53:55.965Z,0.85
2019-02-10T21:56:28.952Z,0.77
2019-02-10T22:01:32.232Z,0.75
2019-02-10T22:04:04.667Z,0.50
2019-02-10T22:06:36.999Z,0.53
2019-02-10T22:09:09.649Z,0.40
2019-02-10T22:11:41.981Z,0.60
2019-02-10T22:14:14.861Z,0.50
2019-02-10T22:16:53.759Z,0.47
2019-02-10T22:19:26.748Z,0.50
2019-02-10T22:21:59.534Z,1.37
2019-02-10T22:24:31.966Z,0.40
2019-02-10T22:27:04.684Z,0.90
2019-02-10T22:29:37.040Z,0.40
2019-02-10T22:32:09.430Z,0.70
2019-02-10T22:34:41.765Z,0.47
2019-02-10T22:37:13.838Z,0.40
2019-02-10T22:39:46.040Z,0.50
2019-02-10T22:42:18.394Z,0.40
2019-02-10T22:44:50.502Z,0.33
2019-02-10T22:47:22.817Z,0.60
2019-02-10T22:49:55.120Z,0.40
2019-02-10T22:52:27.549Z,0.40
2019-02-10T22:55:00.271Z,0.50
2019-02-10T22:57:32.600Z,0.45
2019-02-10T23:00:07.033Z,0.40
2019-02-10T23:02:39.665Z,0.60
2019-02-10T23:05:11.735Z,0.90
2019-02-10T23:07:44.436Z,0.70
2019-02-10T23:10:16.760Z,1.00
2019-02-10T23:12:53.734Z,0.70
2019-02-10T23:15:23.534Z,0.47
2019-02-10T23:17:55.868Z,0.57
2019-02-10T23:20:28.270Z,0.50
2019-02-10T23:23:00.613Z,0.37
2019-02-10T23:25:32.697Z,0.40
2019-02-10T23:28:04.972Z,0.60
2019-02-10T23:30:37.685Z,0.40
2019-02-10T23:33:10.110Z,0.30
2019-02-10T23:35:42.417Z,0.60
2019-02-10T23:38:14.587Z,0.57
2019-02-10T23:40:46.658Z,0.60
2019-02-10T23:43:19.362Z,0.45
2019-02-10T23:45:51.895Z,0.50
2019-02-10T23:48:24.799Z,0.40
2019-02-10T23:50:57.467Z,0.78
2019-02-10T23:53:30.244Z,0.50
2019-02-10T23:56:02.557Z,0.60
2019-02-10T23:58:35.155Z,0.73
